Lewiston, Michigan
Current Conditions -  °F | °C
As of 11:53 AM on Friday 28 Nov 2014 (Local Time) from KGLR Reporting Station
Overcast Overcast  
Wind Chill:   Ceiling: 2600
Heat Index: 17°   Visibility: 10mi
Dew Point: 11°   Wind: 10mph
Humidity: 77%   Direction: 210°SSW
Pressure: 30.15"   Gusts: NA
Location:  44.88°N, 84.31°W
Report Text: KGLR 281653Z AUTO 21009KT 10SM OVC026 M08/M12 A3015 RMK AO2 SLP235 T10831117
Loading
Personal Weather Stations






























Interactive Weather Map New forecast layout! Learn more

10-Day Weather Forecast

Advertisements
Track Severe Weather on mobile